createdAt,value
2022-10-11T00:00:08.726Z,5.40
2022-10-11T00:01:10.549Z,5.70
2022-10-11T00:02:12.047Z,5.38
2022-10-11T00:03:14.594Z,4.85
2022-10-11T00:04:16.164Z,6.07
2022-10-11T00:05:18.044Z,5.72
2022-10-11T00:06:19.551Z,5.30
2022-10-11T00:07:21.035Z,4.95
2022-10-11T00:08:22.967Z,5.40
2022-10-11T00:09:24.458Z,5.60
2022-10-11T00:10:26.024Z,5.25
2022-10-11T00:11:27.790Z,5.50
2022-10-11T00:12:29.224Z,5.45
2022-10-11T00:13:30.823Z,5.50
2022-10-11T00:14:33.971Z,5.03
2022-10-11T00:15:35.576Z,5.35
2022-10-11T00:16:41.214Z,5.20
2022-10-11T00:17:43.111Z,5.20
2022-10-11T00:18:44.540Z,5.32
2022-10-11T00:19:46.434Z,5.35
2022-10-11T00:20:47.966Z,5.63
2022-10-11T00:21:49.955Z,5.10
2022-10-11T00:22:51.371Z,5.40
2022-10-11T00:23:52.847Z,5.70
2022-10-11T00:24:54.316Z,5.70
2022-10-11T00:26:01.519Z,4.90
2022-10-11T00:27:03.631Z,5.28
2022-10-11T00:28:05.941Z,5.10
2022-10-11T00:29:07.524Z,5.32
2022-10-11T00:30:10.485Z,5.63
2022-10-11T00:32:15.412Z,5.13
2022-10-11T00:33:16.891Z,5.63
2022-10-11T00:34:18.395Z,5.35
2022-10-11T00:35:19.818Z,5.70
2022-10-11T00:36:22.624Z,5.68
2022-10-11T00:37:24.089Z,5.70
2022-10-11T00:38:25.647Z,5.32
2022-10-11T00:39:27.168Z,5.57
2022-10-11T00:40:28.592Z,5.25
2022-10-11T00:41:30.422Z,4.95
2022-10-11T00:42:32.033Z,5.32
2022-10-11T00:43:33.796Z,5.10
2022-10-11T00:44:35.357Z,4.93
2022-10-11T00:45:36.721Z,5.15
2022-10-11T00:46:40.707Z,5.07
2022-10-11T00:47:42.153Z,5.03
2022-10-11T00:48:50.749Z,5.65
2022-10-11T00:49:59.256Z,4.65
2022-10-11T00:51:04.485Z,5.40
2022-10-11T00:52:15.308Z,5.53
2022-10-11T00:53:16.795Z,5.32
2022-10-11T00:54:23.867Z,4.97
2022-10-11T00:55:29.351Z,5.30
2022-10-11T00:56:35.667Z,5.05
2022-10-11T00:57:42.245Z,5.40
2022-10-11T00:58:44.155Z,5.22
2022-10-11T00:59:49.781Z,5.20
2022-10-11T01:00:51.410Z,5.10
2022-10-11T01:01:53.671Z,5.35
2022-10-11T01:02:55.255Z,4.97
2022-10-11T01:03:57.425Z,4.47
2022-10-11T01:05:25.192Z,5.05
2022-10-11T01:06:20.770Z,4.90
2022-10-11T01:07:22.803Z,5.05
2022-10-11T01:08:25.606Z,5.60
2022-10-11T01:09:27.396Z,5.22
2022-10-11T01:10:29.586Z,5.53
2022-10-11T01:11:31.644Z,5.72
2022-10-11T01:12:33.654Z,5.38
2022-10-11T01:13:59.290Z,4.78
2022-10-11T01:15:17.291Z,4.95
2022-10-11T01:16:42.277Z,4.97
2022-10-11T01:17:51.914Z,5.03
2022-10-11T01:19:15.302Z,5.70
2022-10-11T01:20:38.226Z,5.85
2022-10-11T01:21:50.553Z,5.28
2022-10-11T01:23:19.442Z,5.30
2022-10-11T01:25:13.204Z,5.13
2022-10-11T01:26:32.972Z,5.05
2022-10-11T01:27:57.325Z,4.95
2022-10-11T01:29:16.835Z,5.00
2022-10-11T01:30:18.396Z,4.88
2022-10-11T01:31:36.190Z,5.05
2022-10-11T01:32:46.716Z,4.82
2022-10-11T01:34:04.130Z,5.35
2022-10-11T01:35:20.454Z,5.35
2022-10-11T01:36:28.038Z,5.05
2022-10-11T01:37:29.463Z,5.22
2022-10-11T01:38:56.550Z,5.15
2022-10-11T01:40:05.861Z,5.50
2022-10-11T01:41:16.749Z,5.10
2022-10-11T01:42:20.074Z,4.90
2022-10-11T01:43:24.282Z,4.60
2022-10-11T01:44:27.050Z,5.20
2022-10-11T01:45:29.558Z,5.53
2022-10-11T01:46:32.390Z,4.82
2022-10-11T01:47:33.830Z,5.25
2022-10-11T01:48:51.389Z,5.13
2022-10-11T01:49:58.581Z,5.50
2022-10-11T01:51:03.343Z,5.13
2022-10-11T01:52:06.725Z,5.22
2022-10-11T01:53:45.440Z,5.18
2022-10-11T01:55:16.955Z,4.97
2022-10-11T01:56:56.488Z,4.82
2022-10-11T01:58:06.870Z,4.90
2022-10-11T01:59:23.569Z,5.60
2022-10-11T02:00:31.821Z,4.80
2022-10-11T02:01:58.383Z,4.97
2022-10-11T02:03:06.827Z,5.03
2022-10-11T02:04:32.883Z,5.28
2022-10-11T02:05:51.737Z,5.65
2022-10-11T02:07:31.095Z,4.63
2022-10-11T02:09:08.231Z,5.43
2022-10-11T02:10:09.820Z,5.10
2022-10-11T02:11:38.663Z,5.88
2022-10-11T02:12:44.687Z,5.50
2022-10-11T02:14:11.097Z,5.28
2022-10-11T02:15:14.732Z,5.32
2022-10-11T02:16:19.900Z,5.63
2022-10-11T02:17:24.552Z,5.43
2022-10-11T02:18:32.196Z,5.43
2022-10-11T02:19:41.417Z,5.43
2022-10-11T02:20:45.344Z,5.35
2022-10-11T02:21:53.157Z,5.05
2022-10-11T02:23:03.421Z,5.22
2022-10-11T02:24:22.204Z,5.72
2022-10-11T02:25:26.918Z,5.63
2022-10-11T02:26:31.467Z,5.55
2022-10-11T02:27:36.622Z,5.63
2022-10-11T02:28:42.291Z,5.65
2022-10-11T02:29:46.004Z,5.78
2022-10-11T02:30:50.811Z,6.00
2022-10-11T02:31:54.224Z,5.47
2022-10-11T02:32:58.741Z,5.53
2022-10-11T02:34:05.336Z,5.93
2022-10-11T02:35:08.144Z,5.53
2022-10-11T02:36:19.725Z,5.63
2022-10-11T02:37:42.566Z,5.47
2022-10-11T02:38:49.883Z,5.70
2022-10-11T02:40:01.263Z,5.50
2022-10-11T02:41:25.596Z,5.35
2022-10-11T02:42:37.169Z,5.28
2022-10-11T02:43:45.674Z,5.50
2022-10-11T02:44:59.713Z,6.10
2022-10-11T02:46:02.461Z,5.68
2022-10-11T02:47:05.512Z,6.10
2022-10-11T02:48:08.129Z,5.65
2022-10-11T02:49:10.436Z,6.07
2022-10-11T02:50:12.551Z,6.20
2022-10-11T02:51:14.824Z,5.95
2022-10-11T02:52:16.596Z,6.07
2022-10-11T02:53:18.095Z,5.43
2022-10-11T02:54:19.577Z,5.75
2022-10-11T02:55:21.308Z,5.85
2022-10-11T02:56:22.770Z,6.03
2022-10-11T02:57:24.592Z,6.00
2022-10-11T02:58:26.266Z,5.78
2022-10-11T02:59:27.932Z,5.35
2022-10-11T03:00:29.613Z,6.80
2022-10-11T03:01:31.128Z,5.82
2022-10-11T03:02:33.010Z,6.22
2022-10-11T03:03:34.484Z,5.95
2022-10-11T03:04:36.735Z,5.72
2022-10-11T03:05:41.740Z,6.22
2022-10-11T03:06:43.689Z,6.20
2022-10-11T03:07:45.487Z,5.43
2022-10-11T03:08:46.972Z,5.68
2022-10-11T03:09:48.441Z,5.75
2022-10-11T03:10:49.956Z,6.13
2022-10-11T03:11:51.431Z,5.55
2022-10-11T03:12:52.906Z,5.97
2022-10-11T03:13:54.380Z,5.97
2022-10-11T03:14:55.870Z,5.68
2022-10-11T03:16:07.268Z,5.68
2022-10-11T03:17:34.437Z,5.28
2022-10-11T03:18:31.488Z,5.70
2022-10-11T03:19:33.686Z,5.22
2022-10-11T03:20:35.407Z,5.30
2022-10-11T03:21:36.952Z,5.82
2022-10-11T03:22:38.821Z,5.93
2022-10-11T03:23:40.470Z,5.60
2022-10-11T03:24:41.911Z,5.38
2022-10-11T03:25:45.911Z,5.32
2022-10-11T03:26:47.425Z,5.47
2022-10-11T03:27:48.940Z,5.32
2022-10-11T03:28:50.445Z,5.22
2022-10-11T03:29:51.930Z,5.60
2022-10-11T03:30:53.501Z,5.53
2022-10-11T03:31:55.221Z,5.32
2022-10-11T03:32:57.195Z,5.72
2022-10-11T03:33:58.632Z,5.18
2022-10-11T03:35:00.184Z,5.28
2022-10-11T03:36:01.721Z,5.35
2022-10-11T03:37:03.398Z,5.15
2022-10-11T03:38:05.182Z,5.38
2022-10-11T03:39:06.681Z,5.05
2022-10-11T03:40:08.908Z,5.38
2022-10-11T03:41:10.356Z,5.40
2022-10-11T03:42:12.943Z,5.75
2022-10-11T03:43:14.813Z,5.93
2022-10-11T03:44:16.336Z,5.60
2022-10-11T03:45:17.881Z,5.10
2022-10-11T03:46:19.319Z,5.38
2022-10-11T03:47:21.147Z,5.20
2022-10-11T03:48:22.609Z,5.45
2022-10-11T03:49:24.756Z,6.03
2022-10-11T03:50:26.273Z,5.57
2022-10-11T03:51:27.810Z,5.72
2022-10-11T03:52:29.686Z,5.50
2022-10-11T03:53:31.116Z,5.60
2022-10-11T03:54:32.833Z,6.13
2022-10-11T03:55:34.581Z,6.25
2022-10-11T03:56:36.122Z,5.60
2022-10-11T03:57:38.000Z,5.30
2022-10-11T03:58:40.763Z,5.15
2022-10-11T03:59:42.360Z,5.50
2022-10-11T04:00:43.851Z,5.93
2022-10-11T04:01:45.388Z,5.90
2022-10-11T04:02:47.296Z,5.80
2022-10-11T04:03:48.825Z,5.88
2022-10-11T04:04:50.295Z,5.45
2022-10-11T04:05:51.818Z,5.50
2022-10-11T04:06:53.928Z,5.40
2022-10-11T04:07:55.412Z,5.55
2022-10-11T04:08:57.014Z,5.90
2022-10-11T04:09:59.080Z,5.57
2022-10-11T04:11:00.835Z,5.47
2022-10-11T04:12:02.792Z,5.72
2022-10-11T04:13:04.377Z,5.72
2022-10-11T04:14:05.916Z,5.75
2022-10-11T04:15:08.006Z,5.43
2022-10-11T04:16:09.452Z,5.18
2022-10-11T04:17:11.338Z,5.80
2022-10-11T04:18:12.952Z,6.05
2022-10-11T04:19:14.500Z,5.50
2022-10-11T04:20:16.192Z,5.93
2022-10-11T04:21:17.988Z,5.53
2022-10-11T04:22:19.822Z,5.80
2022-10-11T04:23:21.276Z,5.65
2022-10-11T04:24:22.967Z,6.05
2022-10-11T04:25:24.654Z,5.90
2022-10-11T04:26:26.451Z,5.63
2022-10-11T04:27:29.289Z,5.72
2022-10-11T04:28:30.875Z,5.63
2022-10-11T04:29:32.990Z,5.65
2022-10-11T04:30:34.738Z,5.75
2022-10-11T04:31:36.521Z,5.70
2022-10-11T04:32:37.972Z,5.20
2022-10-11T04:33:39.448Z,5.70
2022-10-11T04:34:41.056Z,6.57
2022-10-11T04:35:42.753Z,6.40
2022-10-11T04:36:49.600Z,5.45
2022-10-11T04:37:51.472Z,6.07
2022-10-11T04:38:56.076Z,5.88
2022-10-11T04:39:57.584Z,5.95
2022-10-11T04:41:14.010Z,5.90
2022-10-11T04:42:16.351Z,5.70
2022-10-11T04:43:19.085Z,5.93
2022-10-11T04:44:20.575Z,6.13
2022-10-11T04:45:22.282Z,5.43
2022-10-11T04:46:24.310Z,5.88
2022-10-11T04:47:26.026Z,5.60
2022-10-11T04:48:27.570Z,5.80
2022-10-11T04:49:29.012Z,5.55
2022-10-11T04:50:30.477Z,5.72
2022-10-11T04:51:33.818Z,5.55
2022-10-11T04:52:35.271Z,5.90
2022-10-11T04:53:36.787Z,6.53
2022-10-11T04:54:38.292Z,5.40
2022-10-11T04:55:39.816Z,5.85
2022-10-11T04:56:41.726Z,6.00
2022-10-11T04:57:43.296Z,6.25
2022-10-11T04:58:48.138Z,5.72
2022-10-11T04:59:50.392Z,6.30
2022-10-11T05:00:51.975Z,6.25
2022-10-11T05:01:53.828Z,6.35
2022-10-11T05:02:55.322Z,6.72
2022-10-11T05:03:56.875Z,6.13
2022-10-11T05:04:58.750Z,6.07
2022-10-11T05:06:05.474Z,6.20
2022-10-11T05:07:07.435Z,6.68
2022-10-11T05:08:08.869Z,6.15
2022-10-11T05:09:10.401Z,6.28
2022-10-11T05:10:11.899Z,6.28
2022-10-11T05:11:16.384Z,6.22
2022-10-11T05:12:17.826Z,6.60
2022-10-11T05:13:19.330Z,6.45
2022-10-11T05:14:20.933Z,6.63
2022-10-11T05:15:22.385Z,6.18
2022-10-11T05:16:24.685Z,6.32
2022-10-11T05:17:26.185Z,6.07
2022-10-11T05:18:28.130Z,5.78
2022-10-11T05:19:29.647Z,5.82
2022-10-11T05:20:31.093Z,5.63
2022-10-11T05:21:32.617Z,6.07
2022-10-11T05:22:34.225Z,6.05
2022-10-11T05:23:37.210Z,5.97
2022-10-11T05:24:38.716Z,5.93
2022-10-11T05:25:40.260Z,6.00
2022-10-11T05:26:41.727Z,5.47
2022-10-11T05:27:43.166Z,5.78
2022-10-11T05:28:44.955Z,6.30
2022-10-11T05:29:46.493Z,5.88
2022-10-11T05:30:47.950Z,6.05
2022-10-11T05:31:49.489Z,5.85
2022-10-11T05:32:50.936Z,5.97
2022-10-11T05:33:52.547Z,6.80
2022-10-11T05:34:53.985Z,6.03
2022-10-11T05:35:55.460Z,6.32
2022-10-11T05:36:57.330Z,6.72
2022-10-11T05:37:58.759Z,6.10
2022-10-11T05:39:00.239Z,5.75
2022-10-11T05:40:01.654Z,5.82
2022-10-11T05:41:04.554Z,5.75
2022-10-11T05:43:11.528Z,6.40
2022-10-11T05:44:12.968Z,5.90
2022-10-11T05:45:14.438Z,5.72
2022-10-11T05:46:17.082Z,6.35
2022-10-11T05:47:18.517Z,6.22
2022-10-11T05:48:20.332Z,6.00
2022-10-11T05:49:21.841Z,6.60
2022-10-11T05:50:24.479Z,6.90
2022-10-11T05:51:26.497Z,7.15
2022-10-11T05:52:28.329Z,6.43
2022-10-11T05:53:30.318Z,6.55
2022-10-11T05:54:32.275Z,6.32
2022-10-11T05:55:38.169Z,7.05
2022-10-11T05:56:39.661Z,7.28
2022-10-11T05:57:41.204Z,7.10
2022-10-11T05:58:42.619Z,7.05
2022-10-11T05:59:44.028Z,7.10
2022-10-11T06:00:45.806Z,6.53
2022-10-11T06:01:47.292Z,6.85
2022-10-11T06:02:48.783Z,7.70
2022-10-11T06:03:50.953Z,7.32
2022-10-11T06:04:52.425Z,6.97
2022-10-11T06:05:57.013Z,7.25
2022-10-11T06:06:58.838Z,6.90
2022-10-11T06:08:00.255Z,6.95
2022-10-11T06:10:04.112Z,7.00
2022-10-11T06:11:13.689Z,6.70
2022-10-11T06:12:15.242Z,7.25
2022-10-11T06:13:16.689Z,7.68
2022-10-11T06:14:18.377Z,7.60
2022-10-11T06:15:19.867Z,7.10
2022-10-11T06:16:21.850Z,6.60
2022-10-11T06:17:24.006Z,7.53
2022-10-11T06:18:25.407Z,6.78
2022-10-11T06:19:26.802Z,7.20
2022-10-11T06:20:28.312Z,7.00
2022-10-11T06:21:48.751Z,7.80
2022-10-11T06:22:50.418Z,7.47
2022-10-11T06:23:56.843Z,7.50
2022-10-11T06:25:01.575Z,7.35
2022-10-11T06:26:07.942Z,7.40
2022-10-11T06:27:10.029Z,7.35
2022-10-11T06:28:11.458Z,7.28
2022-10-11T06:29:12.888Z,7.72
2022-10-11T06:30:14.713Z,7.28
2022-10-11T06:31:16.535Z,7.43
2022-10-11T06:32:18.472Z,7.13
2022-10-11T06:33:19.964Z,7.35
2022-10-11T06:34:21.517Z,7.68
2022-10-11T06:35:22.922Z,7.15
2022-10-11T06:36:24.677Z,7.05
2022-10-11T06:37:26.152Z,7.47
2022-10-11T06:38:27.646Z,6.82
2022-10-11T06:39:29.104Z,6.85
2022-10-11T06:40:30.862Z,7.28
2022-10-11T06:41:32.300Z,7.43
2022-10-11T06:42:33.774Z,7.28
2022-10-11T06:43:35.179Z,7.85
2022-10-11T06:44:36.639Z,7.38
2022-10-11T06:45:38.391Z,7.00
2022-10-11T06:46:39.926Z,7.18
2022-10-11T06:47:41.351Z,7.65
2022-10-11T06:48:43.982Z,6.97
2022-10-11T06:49:45.454Z,7.55
2022-10-11T06:50:59.568Z,6.57
2022-10-11T06:52:01.968Z,7.43
2022-10-11T06:53:03.471Z,7.38
2022-10-11T06:54:05.296Z,7.35
2022-10-11T06:55:07.652Z,7.13
2022-10-11T06:56:11.631Z,7.45
2022-10-11T06:57:13.107Z,6.72
2022-10-11T06:58:14.548Z,7.10
2022-10-11T06:59:16.015Z,7.80
2022-10-11T07:00:18.089Z,6.88
2022-10-11T07:01:21.575Z,7.18
2022-10-11T07:02:23.083Z,7.00
2022-10-11T07:03:24.719Z,7.22
2022-10-11T07:04:27.622Z,6.80
2022-10-11T07:06:37.816Z,6.65
2022-10-11T07:07:39.255Z,6.57
2022-10-11T07:08:40.810Z,6.30
2022-10-11T07:09:42.202Z,6.57
2022-10-11T07:10:43.982Z,7.05
2022-10-11T07:11:46.316Z,6.80
2022-10-11T07:12:47.714Z,6.47
2022-10-11T07:13:54.637Z,6.82
2022-10-11T07:14:56.505Z,6.35
2022-10-11T07:16:00.933Z,6.88
2022-10-11T07:17:02.672Z,6.82
2022-10-11T07:18:04.313Z,6.90
2022-10-11T07:19:07.662Z,6.75
2022-10-11T07:20:10.054Z,7.32
2022-10-11T07:21:13.603Z,7.00
2022-10-11T07:22:15.048Z,6.65
2022-10-11T07:23:16.711Z,6.50
2022-10-11T07:24:18.524Z,5.90
2022-10-11T07:25:20.283Z,6.35
2022-10-11T07:26:21.712Z,6.45
2022-10-11T07:27:23.556Z,7.30
2022-10-11T07:28:25.485Z,6.30
2022-10-11T07:29:27.024Z,6.22
2022-10-11T07:30:28.821Z,6.25
2022-10-11T07:31:30.314Z,5.82
2022-10-11T07:32:31.783Z,5.95
2022-10-11T07:33:33.460Z,6.00
2022-10-11T07:34:35.248Z,6.20
2022-10-11T07:35:37.405Z,6.40
2022-10-11T07:36:39.002Z,6.55
2022-10-11T07:37:40.454Z,6.53
2022-10-11T07:38:44.715Z,5.80
2022-10-11T07:39:46.556Z,6.28
2022-10-11T07:40:48.089Z,6.32
2022-10-11T07:41:49.529Z,6.28
2022-10-11T07:42:51.303Z,6.32
2022-10-11T07:43:54.488Z,6.20
2022-10-11T07:44:56.274Z,7.25
2022-10-11T07:46:00.586Z,6.28
2022-10-11T07:47:02.083Z,6.10
2022-10-11T07:48:03.617Z,5.90
2022-10-11T07:49:05.073Z,6.20
2022-10-11T07:50:07.593Z,6.47
2022-10-11T07:51:13.870Z,6.13
2022-10-11T07:52:15.336Z,6.28
2022-10-11T07:53:16.796Z,6.65
2022-10-11T07:54:18.592Z,6.03
2022-10-11T07:55:20.014Z,6.30
2022-10-11T07:56:24.234Z,5.70
2022-10-11T07:57:25.753Z,5.80
2022-10-11T07:58:27.242Z,5.88
2022-10-11T07:59:29.046Z,6.00
2022-10-11T08:00:30.579Z,6.43
2022-10-11T08:01:32.751Z,5.75
2022-10-11T08:02:34.280Z,6.25
2022-10-11T08:03:36.687Z,6.07
2022-10-11T08:04:38.550Z,5.80
2022-10-11T08:05:39.991Z,5.70
2022-10-11T08:06:42.331Z,5.90
2022-10-11T08:07:43.798Z,5.68
2022-10-11T08:08:45.327Z,5.80
2022-10-11T08:09:47.095Z,6.15
2022-10-11T08:10:48.517Z,6.07
2022-10-11T08:11:49.937Z,6.38
2022-10-11T08:12:51.592Z,5.32
2022-10-11T08:13:53.171Z,5.97
2022-10-11T08:14:55.758Z,6.35
2022-10-11T08:15:57.765Z,5.82
2022-10-11T08:16:59.211Z,5.80
2022-10-11T08:18:00.660Z,5.20
2022-10-11T08:19:03.503Z,5.57
2022-10-11T08:20:05.454Z,5.72
2022-10-11T08:21:12.517Z,6.05
2022-10-11T08:22:14.023Z,5.43
2022-10-11T08:23:19.388Z,5.35
2022-10-11T08:24:21.296Z,5.50
2022-10-11T08:25:22.749Z,6.25
2022-10-11T08:26:24.554Z,6.97
2022-10-11T08:27:26.031Z,6.55
2022-10-11T08:28:27.502Z,6.28
2022-10-11T08:29:29.246Z,6.10
2022-10-11T08:30:30.709Z,5.90
2022-10-11T08:31:33.036Z,5.65
2022-10-11T08:32:34.529Z,6.18
2022-10-11T08:33:36.555Z,5.15
2022-10-11T08:34:38.579Z,5.15
2022-10-11T08:35:39.988Z,6.18
2022-10-11T08:36:41.479Z,5.60
2022-10-11T08:37:42.964Z,5.93
2022-10-11T08:38:44.850Z,5.50
2022-10-11T08:39:46.324Z,5.03
2022-10-11T08:40:50.744Z,5.75
2022-10-11T08:42:01.235Z,4.90
2022-10-11T08:43:18.575Z,5.75
2022-10-11T08:45:09.937Z,5.65
2022-10-11T08:46:09.197Z,5.03
2022-10-11T08:47:21.469Z,5.72
2022-10-11T08:48:34.583Z,4.60
2022-10-11T08:49:36.771Z,5.60
2022-10-11T08:50:38.726Z,5.22
2022-10-11T08:51:45.580Z,5.13
2022-10-11T08:52:53.615Z,4.63
2022-10-11T08:54:07.966Z,5.38
2022-10-11T08:55:25.279Z,5.25
2022-10-11T08:56:28.055Z,5.43
2022-10-11T08:57:33.787Z,5.15
2022-10-11T08:59:03.405Z,4.80
2022-10-11T09:00:08.872Z,4.28
2022-10-11T09:01:20.644Z,4.55
2022-10-11T09:03:03.047Z,5.30
2022-10-11T09:04:03.979Z,4.72
2022-10-11T09:05:06.514Z,4.25
2022-10-11T09:06:23.229Z,4.13
2022-10-11T09:08:06.307Z,4.38
2022-10-11T09:09:08.064Z,3.83
2022-10-11T09:10:31.103Z,3.90
2022-10-11T09:11:54.124Z,4.30
2022-10-11T09:13:18.892Z,4.63
2022-10-11T09:14:23.681Z,4.72
2022-10-11T09:15:29.000Z,4.90
2022-10-11T09:16:42.656Z,4.65
2022-10-11T09:17:50.885Z,5.18
2022-10-11T09:19:29.048Z,4.20
2022-10-11T09:20:56.467Z,4.00
2022-10-11T09:23:33.483Z,4.60
2022-10-11T09:24:37.546Z,4.15
2022-10-11T09:26:15.035Z,4.53
2022-10-11T09:27:43.450Z,4.18
2022-10-11T09:29:17.882Z,4.00
2022-10-11T09:30:20.609Z,3.50
2022-10-11T09:31:22.829Z,4.00
2022-10-11T09:32:28.546Z,3.95
2022-10-11T09:33:51.483Z,3.83
2022-10-11T09:35:09.753Z,3.45
2022-10-11T09:36:28.533Z,3.45
2022-10-11T09:37:35.500Z,4.00
2022-10-11T09:38:52.405Z,3.60
2022-10-11T09:40:03.218Z,4.15
2022-10-11T09:41:23.383Z,3.40
2022-10-11T09:42:24.861Z,4.30
2022-10-11T09:43:26.368Z,4.78
2022-10-11T09:44:35.327Z,4.60
2022-10-11T09:45:36.876Z,4.18
2022-10-11T09:46:42.243Z,4.07
2022-10-11T09:47:43.678Z,4.10
2022-10-11T09:48:45.419Z,3.47
2022-10-11T09:50:01.052Z,5.00
2022-10-11T09:51:06.469Z,4.80
2022-10-11T09:52:19.675Z,5.10
2022-10-11T09:53:52.879Z,4.88
2022-10-11T09:54:58.256Z,5.03
2022-10-11T09:56:05.221Z,4.55
2022-10-11T09:57:19.610Z,4.05
2022-10-11T09:58:31.099Z,5.10
2022-10-11T09:59:35.175Z,4.80
2022-10-11T10:00:36.710Z,4.38
2022-10-11T10:01:38.227Z,5.00
2022-10-11T10:02:54.402Z,4.50
2022-10-11T10:04:17.380Z,4.35
2022-10-11T10:05:20.260Z,5.18
2022-10-11T10:07:28.573Z,4.55
2022-10-11T10:08:29.978Z,3.85
2022-10-11T10:09:31.853Z,4.72
2022-10-11T10:10:40.737Z,4.43
2022-10-11T10:11:42.125Z,4.20
2022-10-11T10:12:43.662Z,5.22
2022-10-11T10:13:51.585Z,4.97
2022-10-11T10:15:14.581Z,5.25
2022-10-11T10:16:37.175Z,3.97
2022-10-11T10:17:38.682Z,4.18
2022-10-11T10:18:48.846Z,4.60
2022-10-11T10:19:55.386Z,4.70
2022-10-11T10:21:01.877Z,4.55
2022-10-11T10:22:03.323Z,5.15
2022-10-11T10:23:26.914Z,5.43
2022-10-11T10:24:41.190Z,4.22
2022-10-11T10:25:51.021Z,4.75
2022-10-11T10:27:22.710Z,5.03
2022-10-11T10:28:27.146Z,4.85
2022-10-11T10:29:28.653Z,3.85
2022-10-11T10:30:35.332Z,4.85
2022-10-11T10:33:11.626Z,5.00
2022-10-11T10:34:16.743Z,4.28
2022-10-11T10:35:32.431Z,4.75
2022-10-11T10:36:36.654Z,4.63
2022-10-11T10:37:48.064Z,4.95
2022-10-11T10:38:56.193Z,4.60
2022-10-11T10:40:18.646Z,4.10
2022-10-11T10:41:20.156Z,4.40
2022-10-11T10:42:21.872Z,5.18
2022-10-11T10:43:26.722Z,5.25
2022-10-11T10:44:28.554Z,4.15
2022-10-11T10:45:44.192Z,4.40
2022-10-11T10:47:06.981Z,3.90
2022-10-11T10:48:22.207Z,4.95
2022-10-11T10:49:53.130Z,4.93
2022-10-11T10:51:00.938Z,3.90
2022-10-11T10:53:24.708Z,5.13
2022-10-11T10:54:38.782Z,4.30
2022-10-11T10:55:45.960Z,3.78
2022-10-11T10:57:00.756Z,4.22
2022-10-11T10:58:30.083Z,4.10
2022-10-11T10:59:54.170Z,4.63
2022-10-11T11:01:04.063Z,4.03
2022-10-11T11:02:35.486Z,4.43
2022-10-11T11:04:08.665Z,3.83
2022-10-11T11:05:18.797Z,3.88
2022-10-11T11:06:42.663Z,3.70
2022-10-11T11:07:50.087Z,3.92
2022-10-11T11:08:56.631Z,3.90
2022-10-11T11:10:07.073Z,3.72
2022-10-11T11:11:31.733Z,3.13
2022-10-11T11:13:14.599Z,3.67
2022-10-11T11:14:34.312Z,5.20
2022-10-11T11:16:01.626Z,4.53
2022-10-11T11:18:34.153Z,4.80
2022-10-11T11:19:41.241Z,4.85
2022-10-11T11:21:22.361Z,4.55
2022-10-11T11:22:57.669Z,4.85
2022-10-11T11:24:27.193Z,5.55
2022-10-11T11:25:34.712Z,4.30
2022-10-11T11:26:48.214Z,4.15
2022-10-11T11:28:20.546Z,4.30
2022-10-11T11:29:34.324Z,4.20
2022-10-11T11:30:41.120Z,4.97
2022-10-11T11:31:57.615Z,4.82
2022-10-11T11:33:22.234Z,4.57
2022-10-11T11:34:28.911Z,5.20
2022-10-11T11:35:43.941Z,4.60
2022-10-11T11:36:56.582Z,4.38
2022-10-11T11:38:06.499Z,3.80
2022-10-11T11:39:33.432Z,3.65
2022-10-11T11:40:39.342Z,4.50
2022-10-11T11:41:46.896Z,5.05
2022-10-11T11:42:51.343Z,4.72
2022-10-11T11:44:28.508Z,5.10
2022-10-11T11:45:40.581Z,4.90
2022-10-11T11:46:57.870Z,4.20
2022-10-11T11:48:09.927Z,5.05
2022-10-11T11:49:21.856Z,4.28
2022-10-11T11:50:25.058Z,3.97
2022-10-11T11:51:35.266Z,4.13
2022-10-11T11:52:41.081Z,3.63
2022-10-11T11:54:02.800Z,3.85
2022-10-11T11:55:44.643Z,4.95
2022-10-11T11:57:07.288Z,4.88
2022-10-11T11:58:23.646Z,4.55
2022-10-11T11:59:58.242Z,3.80
2022-10-11T12:01:17.861Z,4.47
2022-10-11T12:02:31.459Z,3.88
2022-10-11T12:03:46.970Z,4.32
2022-10-11T12:04:50.591Z,4.10
2022-10-11T12:06:14.526Z,4.45
2022-10-11T12:07:19.552Z,4.38
2022-10-11T12:08:32.141Z,7.30
2022-10-11T12:09:36.031Z,7.30
2022-10-11T12:10:49.633Z,10.85
2022-10-11T12:11:56.777Z,8.38
2022-10-11T12:13:02.694Z,7.13
2022-10-11T12:14:27.725Z,4.75
2022-10-11T12:15:29.361Z,4.47
2022-10-11T12:16:31.109Z,4.85
2022-10-11T12:17:33.398Z,4.40
2022-10-11T12:18:41.905Z,4.32
2022-10-11T12:20:24.927Z,4.57
2022-10-11T12:21:38.685Z,4.80
2022-10-11T12:23:00.666Z,4.82
2022-10-11T12:24:21.477Z,3.75
2022-10-11T12:25:22.840Z,4.40
2022-10-11T12:26:27.154Z,4.50
2022-10-11T12:27:40.475Z,4.35
2022-10-11T12:28:42.342Z,4.70
2022-10-11T12:29:51.529Z,4.68
2022-10-11T12:31:03.172Z,4.30
2022-10-11T12:32:04.756Z,4.32
2022-10-11T12:33:14.705Z,4.07
2022-10-11T12:34:21.551Z,4.63
2022-10-11T12:35:32.311Z,4.35
2022-10-11T12:36:50.501Z,4.32
2022-10-11T12:37:52.408Z,4.88
2022-10-11T12:39:18.646Z,5.05
2022-10-11T12:40:54.816Z,4.07
2022-10-11T12:42:21.269Z,4.35
2022-10-11T12:43:26.935Z,4.57
2022-10-11T12:44:29.501Z,4.60
2022-10-11T12:45:33.088Z,4.60
2022-10-11T12:46:42.271Z,4.07
2022-10-11T12:47:59.840Z,4.50
2022-10-11T12:49:24.644Z,4.22
2022-10-11T12:50:39.280Z,4.30
2022-10-11T12:51:59.883Z,4.03
2022-10-11T12:53:04.198Z,4.30
2022-10-11T12:54:36.140Z,4.50
2022-10-11T12:55:48.066Z,4.25
2022-10-11T12:56:56.925Z,4.45
2022-10-11T12:58:26.990Z,4.28
2022-10-11T12:59:32.301Z,4.28
2022-10-11T13:01:03.849Z,4.40
2022-10-11T13:02:28.691Z,3.70
2022-10-11T13:03:41.430Z,4.28
2022-10-11T13:04:42.917Z,4.00
2022-10-11T13:05:49.716Z,3.47
2022-10-11T13:07:01.079Z,4.43
2022-10-11T13:08:12.772Z,4.22
2022-10-11T13:09:24.869Z,4.03
2022-10-11T13:10:32.700Z,3.58
2022-10-11T13:11:43.740Z,4.40
2022-10-11T13:12:47.817Z,3.97
2022-10-11T13:14:26.720Z,3.63
2022-10-11T13:15:28.773Z,3.53
2022-10-11T13:16:47.942Z,3.90
2022-10-11T13:17:51.783Z,3.42
2022-10-11T13:19:00.438Z,3.88
2022-10-11T13:20:05.919Z,3.60
2022-10-11T13:21:27.598Z,3.90
2022-10-11T13:22:29.158Z,4.00
2022-10-11T13:23:38.366Z,3.83
2022-10-11T13:24:40.754Z,4.47
2022-10-11T13:25:42.334Z,4.07
2022-10-11T13:26:46.684Z,3.83
2022-10-11T13:27:50.170Z,4.10
2022-10-11T13:28:51.828Z,3.85
2022-10-11T13:29:59.630Z,4.13
2022-10-11T13:31:01.506Z,3.47
2022-10-11T13:32:07.825Z,3.83
2022-10-11T13:33:20.121Z,3.88
2022-10-11T13:34:23.639Z,3.88
2022-10-11T13:35:37.268Z,3.53
2022-10-11T13:36:39.400Z,3.47
2022-10-11T13:37:48.512Z,3.58
2022-10-11T13:38:58.170Z,3.53
2022-10-11T13:39:59.694Z,3.50
2022-10-11T13:41:04.436Z,4.13
2022-10-11T13:42:10.837Z,3.75
2022-10-11T13:43:15.608Z,4.32
2022-10-11T13:44:17.606Z,3.58
2022-10-11T13:45:23.266Z,3.50
2022-10-11T13:46:26.888Z,3.58
2022-10-11T13:47:30.281Z,3.15
2022-10-11T13:48:32.400Z,3.08
2022-10-11T13:49:40.192Z,2.95
2022-10-11T13:50:46.119Z,3.28
2022-10-11T13:51:57.983Z,4.15
2022-10-11T13:53:21.156Z,4.47
2022-10-11T13:54:22.952Z,3.47
2022-10-11T13:55:24.442Z,3.90
2022-10-11T13:56:28.297Z,3.63
2022-10-11T13:57:33.414Z,3.75
2022-10-11T13:58:40.691Z,3.90
2022-10-11T13:59:43.735Z,3.50
2022-10-11T14:01:05.925Z,3.88
2022-10-11T14:02:18.733Z,3.63
2022-10-11T14:03:22.099Z,3.42
2022-10-11T14:04:29.357Z,4.50
2022-10-11T14:05:36.662Z,3.88
2022-10-11T14:06:40.951Z,3.72
2022-10-11T14:07:42.490Z,3.60
2022-10-11T14:08:59.567Z,3.72
2022-10-11T14:10:01.084Z,3.63
2022-10-11T14:11:06.366Z,3.85
2022-10-11T14:12:29.991Z,3.83
2022-10-11T14:13:42.374Z,3.90
2022-10-11T14:14:44.033Z,3.65
2022-10-11T14:15:45.517Z,4.10
2022-10-11T14:16:58.631Z,3.42
2022-10-11T14:18:01.935Z,3.78
2022-10-11T14:19:10.891Z,4.15
2022-10-11T14:21:28.764Z,4.18
2022-10-11T14:22:30.514Z,3.50
2022-10-11T14:23:32.286Z,3.75
2022-10-11T14:24:33.746Z,3.50
2022-10-11T14:25:35.695Z,3.75
2022-10-11T14:26:41.402Z,3.33
2022-10-11T14:27:42.895Z,3.40
2022-10-11T14:28:45.683Z,3.75
2022-10-11T14:31:08.712Z,4.03
2022-10-11T14:32:20.695Z,3.70
2022-10-11T14:33:22.143Z,3.38
2022-10-11T14:34:25.985Z,3.47
2022-10-11T14:35:30.360Z,4.13
2022-10-11T14:36:31.911Z,3.40
2022-10-11T14:37:33.320Z,3.85
2022-10-11T14:38:35.005Z,4.35
2022-10-11T14:39:36.872Z,3.92
2022-10-11T14:40:38.277Z,4.00
2022-10-11T14:41:39.808Z,3.80
2022-10-11T14:42:41.384Z,3.92
2022-10-11T14:43:42.911Z,3.55
2022-10-11T14:44:44.731Z,3.80
2022-10-11T14:45:46.671Z,3.60
2022-10-11T14:46:50.390Z,3.75
2022-10-11T14:47:51.971Z,3.90
2022-10-11T14:48:56.185Z,3.67
2022-10-11T14:49:58.242Z,3.75
2022-10-11T14:51:02.963Z,5.95
2022-10-11T14:52:06.874Z,5.80
2022-10-11T14:53:10.587Z,5.13
2022-10-11T14:54:13.388Z,4.70
2022-10-11T14:55:14.899Z,4.82
2022-10-11T14:56:21.340Z,6.28
2022-10-11T14:57:23.462Z,7.13
2022-10-11T14:58:25.035Z,6.45
2022-10-11T14:59:31.832Z,7.05
2022-10-11T15:00:35.068Z,7.25
2022-10-11T15:01:36.561Z,8.55
2022-10-11T15:02:38.005Z,9.02
2022-10-11T15:03:40.153Z,14.82